createdAt,value
2018-07-04T00:01:57.375Z,19.50
2018-07-04T00:04:37.049Z,19.50
2018-07-04T00:07:16.646Z,19.50
2018-07-04T00:09:56.450Z,19.40
2018-07-04T00:12:36.035Z,19.30
2018-07-04T00:15:15.689Z,19.30
2018-07-04T00:17:55.364Z,19.30
2018-07-04T00:20:40.061Z,19.20
2018-07-04T00:23:19.784Z,19.20
2018-07-04T00:25:59.322Z,19.20
2018-07-04T00:28:39.037Z,19.20
2018-07-04T00:31:18.681Z,19.20
2018-07-04T00:33:58.250Z,19.10
2018-07-04T00:36:37.811Z,19.10
2018-07-04T00:39:17.708Z,19.10
2018-07-04T00:41:57.442Z,19.10
2018-07-04T00:44:37.378Z,19.20
2018-07-04T00:47:17.015Z,19.20
2018-07-04T00:52:30.395Z,19.20
2018-07-04T00:55:10.088Z,19.20
2018-07-04T00:57:49.702Z,19.10
2018-07-04T01:00:29.415Z,19.10
2018-07-04T01:03:09.143Z,19.20
2018-07-04T01:05:48.773Z,19.20
2018-07-04T01:08:28.468Z,19.10
2018-07-04T01:11:08.084Z,18.90
2018-07-04T01:13:47.930Z,18.70
2018-07-04T01:16:27.606Z,18.70
2018-07-04T01:19:07.277Z,18.60
2018-07-04T01:21:46.879Z,18.50
2018-07-04T01:24:26.476Z,18.50
2018-07-04T01:27:06.210Z,18.40
2018-07-04T01:29:45.878Z,18.30
2018-07-04T01:32:25.611Z,18.30
2018-07-04T01:35:05.194Z,18.20
2018-07-04T01:37:44.881Z,18.20
2018-07-04T01:40:24.713Z,18.20
2018-07-04T01:43:04.211Z,18.10
2018-07-04T01:45:43.881Z,18.10
2018-07-04T01:48:23.587Z,18.00
2018-07-04T01:51:03.240Z,18.10
2018-07-04T01:53:42.868Z,17.90
2018-07-04T01:56:22.604Z,17.90
2018-07-04T01:59:02.193Z,17.80
2018-07-04T02:01:41.882Z,17.70
2018-07-04T02:04:21.599Z,17.70
2018-07-04T02:07:01.403Z,17.90
2018-07-04T02:09:41.211Z,17.70
2018-07-04T02:12:20.875Z,17.60
2018-07-04T02:15:00.559Z,17.60
2018-07-04T02:17:40.280Z,17.50
2018-07-04T02:20:19.974Z,17.50
2018-07-04T02:22:59.867Z,17.40
2018-07-04T02:25:39.658Z,17.40
2018-07-04T02:28:19.486Z,17.30
2018-07-04T02:30:59.361Z,17.30
2018-07-04T02:33:39.228Z,17.30
2018-07-04T02:36:19.033Z,17.20
2018-07-04T02:38:58.570Z,17.10
2018-07-04T02:41:38.334Z,17.10
2018-07-04T02:44:18.105Z,17.10
2018-07-04T02:46:57.922Z,17.00
2018-07-04T02:49:37.555Z,17.00
2018-07-04T02:52:17.307Z,17.00
2018-07-04T02:54:57.075Z,17.00
2018-07-04T02:57:36.818Z,16.90
2018-07-04T03:00:16.459Z,16.90
2018-07-04T03:02:56.159Z,16.80
2018-07-04T03:05:35.713Z,16.80
2018-07-04T03:08:15.387Z,16.80
2018-07-04T03:10:55.114Z,16.70
2018-07-04T03:13:34.740Z,16.80
2018-07-04T03:16:14.502Z,16.70
2018-07-04T03:18:54.361Z,16.70
2018-07-04T03:21:34.191Z,16.70
2018-07-04T03:24:13.894Z,16.60
2018-07-04T03:26:53.467Z,16.60
2018-07-04T03:29:32.930Z,16.70
2018-07-04T03:32:12.636Z,16.70
2018-07-04T03:34:52.315Z,16.70
2018-07-04T03:37:31.973Z,16.60
2018-07-04T03:40:11.614Z,16.70
2018-07-04T03:42:51.413Z,16.70
2018-07-04T03:45:31.251Z,16.70
2018-07-04T03:48:10.858Z,16.70
2018-07-04T03:53:24.354Z,16.70
2018-07-04T03:56:04.040Z,16.70
2018-07-04T03:58:44.002Z,16.70
2018-07-04T04:03:57.426Z,16.80
2018-07-04T04:06:37.070Z,16.80
2018-07-04T04:09:16.909Z,16.90
2018-07-04T04:11:56.630Z,16.90
2018-07-04T04:14:36.671Z,16.90
2018-07-04T04:19:50.043Z,17.10
2018-07-04T04:22:29.978Z,17.10
2018-07-04T04:25:09.818Z,17.10
2018-07-04T04:27:49.599Z,17.20
2018-07-04T04:30:29.404Z,17.40
2018-07-04T04:33:09.001Z,17.40
2018-07-04T04:35:48.751Z,17.40
2018-07-04T04:38:28.468Z,17.50
2018-07-04T04:41:08.163Z,17.60
2018-07-04T04:43:47.950Z,17.70
2018-07-04T04:46:27.727Z,17.70
2018-07-04T04:49:08.089Z,17.80
2018-07-04T04:51:47.942Z,17.90
2018-07-04T04:54:27.743Z,18.00
2018-07-04T04:57:07.582Z,18.10
2018-07-04T04:59:47.543Z,18.20
2018-07-04T05:05:01.267Z,18.40
2018-07-04T05:07:40.979Z,18.60
2018-07-04T05:10:20.591Z,18.60
2018-07-04T05:13:00.729Z,18.70
2018-07-04T05:15:40.779Z,18.90
2018-07-04T05:18:20.552Z,18.90
2018-07-04T05:21:00.256Z,19.10
2018-07-04T05:23:40.007Z,19.30
2018-07-04T05:26:19.603Z,19.50
2018-07-04T05:28:59.245Z,19.60
2018-07-04T05:31:39.010Z,19.80
2018-07-04T05:34:18.798Z,20.10
2018-07-04T05:36:58.538Z,20.20
2018-07-04T05:39:38.423Z,20.60
2018-07-04T05:42:18.344Z,20.80
2018-07-04T05:44:58.108Z,20.60
2018-07-04T05:47:37.735Z,20.70
2018-07-04T05:50:17.279Z,20.90
2018-07-04T05:52:56.973Z,20.80
2018-07-04T05:55:36.655Z,20.90
2018-07-04T05:58:16.302Z,21.00
2018-07-04T06:00:56.253Z,21.10
2018-07-04T06:03:36.427Z,21.10
2018-07-04T06:06:16.073Z,21.10
2018-07-04T06:08:55.811Z,21.10
2018-07-04T06:11:35.528Z,21.20
2018-07-04T06:14:15.270Z,21.20
2018-07-04T06:16:54.991Z,21.50
2018-07-04T06:19:34.754Z,21.50
2018-07-04T06:22:14.345Z,21.50
2018-07-04T06:24:54.095Z,21.70
2018-07-04T06:27:33.959Z,21.70
2018-07-04T06:30:13.622Z,22.10
2018-07-04T06:32:53.317Z,22.20
2018-07-04T06:35:33.113Z,22.40
2018-07-04T06:38:00.607Z,22.50
2018-07-04T06:40:27.915Z,22.50
2018-07-04T06:42:55.199Z,22.70
2018-07-04T06:45:22.562Z,22.70
2018-07-04T06:47:49.870Z,23.00
2018-07-04T06:50:17.175Z,23.00
2018-07-04T06:52:44.458Z,23.20
2018-07-04T06:55:11.784Z,23.80
2018-07-04T06:57:39.092Z,24.30
2018-07-04T07:00:06.400Z,24.40
2018-07-04T07:02:33.697Z,25.00
2018-07-04T07:05:13.360Z,25.50
2018-07-04T07:07:53.079Z,26.10
2018-07-04T07:10:32.766Z,27.20
2018-07-04T07:13:12.402Z,27.10
2018-07-04T07:15:52.352Z,27.90
2018-07-04T07:18:32.119Z,28.20
2018-07-04T07:21:11.969Z,28.80
2018-07-04T07:23:51.717Z,28.60
2018-07-04T07:26:31.502Z,28.50
2018-07-04T07:29:11.167Z,28.90
2018-07-04T07:31:50.798Z,28.40
2018-07-04T07:34:30.430Z,28.60
2018-07-04T07:37:10.193Z,29.00
2018-07-04T07:39:49.866Z,29.00
2018-07-04T07:42:29.611Z,28.70
2018-07-04T07:45:09.299Z,28.60
2018-07-04T07:47:48.951Z,28.10
2018-07-04T07:50:28.522Z,28.00
2018-07-04T07:53:08.244Z,27.70
2018-07-04T07:55:47.925Z,27.90
2018-07-04T07:58:27.628Z,28.10
2018-07-04T08:01:07.283Z,27.90
2018-07-04T08:03:46.956Z,28.00
2018-07-04T08:06:26.632Z,28.10
2018-07-04T08:09:06.252Z,28.10
2018-07-04T08:11:46.059Z,28.80
2018-07-04T08:14:25.770Z,29.10
2018-07-04T08:17:05.507Z,29.00
2018-07-04T08:19:45.183Z,28.90
2018-07-04T08:22:24.938Z,29.40
2018-07-04T08:25:04.798Z,29.20
2018-07-04T08:27:44.568Z,28.90
2018-07-04T08:30:24.178Z,29.60
2018-07-04T08:33:03.893Z,30.10
2018-07-04T08:35:43.715Z,31.50
2018-07-04T08:38:23.467Z,32.30
2018-07-04T08:41:03.253Z,32.60
2018-07-04T08:43:43.015Z,32.90
2018-07-04T08:46:22.609Z,33.50
2018-07-04T08:49:02.471Z,33.50
2018-07-04T08:51:42.276Z,33.50
2018-07-04T08:54:22.186Z,33.00
2018-07-04T08:57:01.850Z,33.20
2018-07-04T08:59:41.501Z,32.60
2018-07-04T09:02:21.213Z,33.00
2018-07-04T09:05:00.980Z,33.00
2018-07-04T09:07:40.691Z,32.80
2018-07-04T09:10:20.627Z,32.40
2018-07-04T09:13:00.250Z,31.50
2018-07-04T09:15:40.151Z,30.30
2018-07-04T09:18:20.030Z,28.90
2018-07-04T09:20:59.638Z,27.60
2018-07-04T09:23:39.373Z,26.70
2018-07-04T09:26:19.150Z,26.90
2018-07-04T09:28:58.975Z,26.50
2018-07-04T09:31:38.558Z,25.90
2018-07-04T09:34:18.322Z,25.30
2018-07-04T09:36:58.147Z,25.00
2018-07-04T09:39:37.964Z,24.90
2018-07-04T09:42:17.929Z,24.60
2018-07-04T09:44:57.742Z,24.00
2018-07-04T09:47:37.650Z,24.10
2018-07-04T09:50:17.375Z,23.90
2018-07-04T09:52:57.276Z,23.60
2018-07-04T09:55:36.894Z,23.30
2018-07-04T09:58:17.228Z,23.00
2018-07-04T10:01:02.337Z,22.60
2018-07-04T10:03:41.909Z,22.40
2018-07-04T10:06:22.688Z,22.10
2018-07-04T10:09:02.343Z,22.00
2018-07-04T10:11:42.033Z,22.10
2018-07-04T10:14:21.987Z,22.10
2018-07-04T10:17:01.681Z,22.10
2018-07-04T10:19:42.486Z,22.30
2018-07-04T10:22:22.259Z,22.30
2018-07-04T10:25:02.038Z,22.20
2018-07-04T10:27:41.908Z,22.10
2018-07-04T10:30:21.664Z,22.10
2018-07-04T10:33:01.800Z,22.00
2018-07-04T10:38:15.858Z,22.00
2018-07-04T10:40:55.800Z,21.90
2018-07-04T10:43:35.527Z,21.80
2018-07-04T10:46:15.330Z,21.70
2018-07-04T10:48:55.154Z,21.40
2018-07-04T10:51:34.900Z,21.30
2018-07-04T10:54:14.706Z,21.30
2018-07-04T10:56:54.425Z,21.30
2018-07-04T10:59:34.138Z,21.10
2018-07-04T11:02:13.701Z,21.00
2018-07-04T11:04:53.318Z,21.00
2018-07-04T11:07:33.132Z,20.90
2018-07-04T11:10:14.146Z,21.00
2018-07-04T11:12:53.697Z,21.20
2018-07-04T11:15:33.389Z,21.50
2018-07-04T11:18:13.036Z,21.60
2018-07-04T11:20:52.826Z,21.80
2018-07-04T11:23:32.447Z,21.90
2018-07-04T11:26:12.156Z,22.00
2018-07-04T11:28:51.904Z,22.20
2018-07-04T11:31:31.670Z,22.50
2018-07-04T11:34:11.394Z,22.40
2018-07-04T11:36:51.135Z,22.50
2018-07-04T11:39:30.806Z,22.40
2018-07-04T11:42:10.671Z,22.40
2018-07-04T11:44:50.266Z,22.10
2018-07-04T11:47:17.574Z,22.50
2018-07-04T11:49:44.925Z,22.40
2018-07-04T11:52:12.231Z,22.60
2018-07-04T11:54:39.621Z,22.90
2018-07-04T11:57:06.921Z,23.20
2018-07-04T11:59:34.256Z,23.70
2018-07-04T12:02:01.705Z,24.20
2018-07-04T12:04:41.603Z,24.00
2018-07-04T12:07:09.991Z,24.30
2018-07-04T12:09:39.698Z,24.10
2018-07-04T12:12:07.170Z,24.70
2018-07-04T12:14:34.503Z,25.00
2018-07-04T12:17:01.809Z,25.10
2018-07-04T12:19:29.114Z,25.10
2018-07-04T12:21:56.412Z,25.40
2018-07-04T12:24:23.779Z,25.60
2018-07-04T12:26:51.290Z,25.60
2018-07-04T12:29:18.594Z,25.60
2018-07-04T12:31:45.927Z,25.80
2018-07-04T12:34:13.227Z,25.70
2018-07-04T12:36:40.506Z,25.60
2018-07-04T12:39:07.934Z,25.10
2018-07-04T12:41:35.371Z,25.50
2018-07-04T12:44:02.694Z,25.30
2018-07-04T12:46:30.468Z,25.60
2018-07-04T12:49:01.051Z,25.50
2018-07-04T12:51:29.670Z,25.50
2018-07-04T12:54:02.635Z,25.60
2018-07-04T12:56:43.766Z,25.40
2018-07-04T12:59:23.662Z,25.60
2018-07-04T13:02:04.340Z,25.60
2018-07-04T13:04:45.052Z,25.90
2018-07-04T13:07:25.690Z,26.00
2018-07-04T13:10:05.547Z,26.10
2018-07-04T13:12:45.292Z,26.30
2018-07-04T13:15:25.222Z,26.20
2018-07-04T13:18:04.893Z,26.60
2018-07-04T13:20:44.642Z,27.00
2018-07-04T13:23:24.518Z,27.30
2018-07-04T13:26:04.099Z,27.60
2018-07-04T13:28:43.874Z,27.40
2018-07-04T13:31:23.723Z,27.10
2018-07-04T13:34:03.635Z,27.10
2018-07-04T13:36:43.282Z,27.00
2018-07-04T13:39:22.978Z,26.80
2018-07-04T13:42:02.627Z,26.50
2018-07-04T13:44:42.348Z,26.40
2018-07-04T13:47:22.112Z,26.60
2018-07-04T13:50:02.051Z,26.50
2018-07-04T13:52:41.984Z,26.30
2018-07-04T13:55:22.058Z,26.30
2018-07-04T13:58:02.593Z,26.20
2018-07-04T14:00:42.210Z,25.90
2018-07-04T14:03:21.828Z,25.70
2018-07-04T14:08:35.039Z,25.60
2018-07-04T14:11:14.877Z,25.60
2018-07-04T14:13:54.554Z,25.40
2018-07-04T14:16:35.283Z,25.50
2018-07-04T14:19:14.996Z,25.10
2018-07-04T14:21:54.787Z,24.60
2018-07-04T14:24:34.501Z,24.00
2018-07-04T14:27:14.208Z,23.70
2018-07-04T14:29:53.748Z,23.50
2018-07-04T14:32:33.255Z,23.50
2018-07-04T14:35:13.090Z,23.40
2018-07-04T14:37:52.682Z,23.50
2018-07-04T14:40:32.448Z,23.40
2018-07-04T14:43:12.152Z,23.40
2018-07-04T14:45:51.810Z,23.50
2018-07-04T14:48:31.519Z,23.60
2018-07-04T14:51:11.102Z,23.70
2018-07-04T14:53:51.601Z,23.90
2018-07-04T14:56:31.207Z,24.20
2018-07-04T14:59:10.829Z,24.40
2018-07-04T15:01:50.519Z,24.90
2018-07-04T15:04:30.300Z,25.40
2018-07-04T15:07:10.112Z,26.00
2018-07-04T15:09:49.981Z,26.40
2018-07-04T15:12:29.777Z,26.40
2018-07-04T15:15:09.340Z,26.70
2018-07-04T15:17:49.161Z,27.00
2018-07-04T15:20:28.911Z,27.00
2018-07-04T15:23:08.567Z,27.10
2018-07-04T15:25:48.096Z,27.00
2018-07-04T15:28:27.786Z,26.80
2018-07-04T15:31:07.601Z,26.80
2018-07-04T15:33:47.255Z,27.00
2018-07-04T15:36:26.955Z,27.40
2018-07-04T15:39:06.805Z,27.20
2018-07-04T15:41:46.562Z,26.80
2018-07-04T15:44:26.209Z,26.50
2018-07-04T15:47:06.008Z,26.30
2018-07-04T15:49:49.971Z,26.20
2018-07-04T15:52:30.613Z,26.20
2018-07-04T15:55:10.251Z,26.10
2018-07-04T15:57:49.919Z,25.80
2018-07-04T16:00:30.606Z,25.60
2018-07-04T16:03:10.667Z,25.60
2018-07-04T16:05:50.868Z,25.60
2018-07-04T16:08:31.209Z,25.80
2018-07-04T16:11:11.110Z,26.20
2018-07-04T16:13:51.002Z,26.30
2018-07-04T16:16:30.683Z,26.30
2018-07-04T16:19:10.252Z,26.30
2018-07-04T16:21:49.937Z,26.20
2018-07-04T16:24:29.729Z,26.10
2018-07-04T16:27:09.834Z,26.20
2018-07-04T16:29:49.543Z,26.30
2018-07-04T16:32:29.011Z,26.40
2018-07-04T16:35:08.723Z,26.50
2018-07-04T16:37:48.523Z,26.20
2018-07-04T16:40:28.425Z,26.20
2018-07-04T16:43:08.260Z,26.20
2018-07-04T16:45:48.367Z,26.00
2018-07-04T16:48:28.307Z,26.10
2018-07-04T16:51:07.939Z,26.00
2018-07-04T16:53:47.667Z,26.00
2018-07-04T16:56:27.414Z,26.00
2018-07-04T16:59:07.001Z,25.80
2018-07-04T17:01:46.751Z,25.60
2018-07-04T17:04:26.451Z,25.60
2018-07-04T17:07:06.282Z,25.50
2018-07-04T17:09:46.142Z,25.40
2018-07-04T17:12:26.031Z,25.30
2018-07-04T17:15:05.738Z,25.10
2018-07-04T17:17:45.347Z,25.00
2018-07-04T17:20:24.999Z,24.80
2018-07-04T17:23:05.029Z,24.50
2018-07-04T17:25:44.856Z,24.40
2018-07-04T17:28:25.453Z,24.20
2018-07-04T17:31:05.223Z,24.10
2018-07-04T17:33:44.964Z,24.00
2018-07-04T17:36:24.712Z,23.90
2018-07-04T17:39:05.272Z,23.80
2018-07-04T17:41:45.403Z,23.80
2018-07-04T17:44:24.968Z,23.70
2018-07-04T17:47:04.785Z,23.60
2018-07-04T17:49:44.443Z,23.60
2018-07-04T17:52:24.362Z,23.50
2018-07-04T17:55:04.310Z,23.50
2018-07-04T17:57:44.015Z,23.50
2018-07-04T18:00:23.747Z,23.50
2018-07-04T18:03:03.487Z,23.50
2018-07-04T18:05:43.116Z,23.40
2018-07-04T18:08:22.857Z,23.30
2018-07-04T18:11:02.691Z,23.30
2018-07-04T18:13:42.431Z,23.30
2018-07-04T18:16:22.203Z,23.20
2018-07-04T18:19:02.101Z,23.20
2018-07-04T18:21:41.961Z,23.10
2018-07-04T18:24:21.494Z,23.00
2018-07-04T18:27:01.085Z,22.90
2018-07-04T18:29:40.794Z,22.80
2018-07-04T18:32:20.713Z,22.70
2018-07-04T18:35:00.524Z,22.70
2018-07-04T18:37:40.211Z,22.60
2018-07-04T18:40:19.868Z,22.60
2018-07-04T18:42:59.661Z,22.50
2018-07-04T18:45:39.381Z,22.60
2018-07-04T18:48:19.500Z,22.50
2018-07-04T18:50:59.199Z,22.50
2018-07-04T18:53:39.015Z,22.50
2018-07-04T18:56:18.840Z,22.50
2018-07-04T18:58:58.741Z,22.40
2018-07-04T19:01:38.423Z,22.40
2018-07-04T19:04:18.100Z,22.30
2018-07-04T19:06:57.943Z,22.20
2018-07-04T19:09:37.657Z,22.20
2018-07-04T19:12:17.417Z,22.20
2018-07-04T19:14:56.987Z,22.10
2018-07-04T19:17:36.595Z,22.00
2018-07-04T19:20:16.260Z,22.00
2018-07-04T19:22:55.902Z,22.10
2018-07-04T19:25:35.431Z,22.10
2018-07-04T19:28:15.270Z,22.10
2018-07-04T19:30:55.139Z,22.10
2018-07-04T19:33:35.486Z,22.10
2018-07-04T19:36:15.231Z,22.00
2018-07-04T19:38:55.954Z,22.00
2018-07-04T19:41:35.722Z,21.90
2018-07-04T19:44:15.342Z,21.90
2018-07-04T19:46:55.136Z,21.80
2018-07-04T19:49:35.060Z,21.60
2018-07-04T19:52:14.988Z,21.50
2018-07-04T19:54:54.914Z,21.50
2018-07-04T19:57:34.530Z,21.30
2018-07-04T20:00:14.253Z,21.20
2018-07-04T20:02:53.954Z,21.10
2018-07-04T20:05:33.878Z,21.00
2018-07-04T20:08:13.740Z,20.90
2018-07-04T20:10:53.564Z,20.80
2018-07-04T20:13:33.224Z,20.70
2018-07-04T20:16:13.029Z,20.70
2018-07-04T20:18:52.941Z,20.70
2018-07-04T20:21:32.906Z,20.60
2018-07-04T20:24:12.673Z,20.60
2018-07-04T20:26:52.428Z,20.70
2018-07-04T20:29:32.101Z,20.50
2018-07-04T20:32:11.808Z,20.40
2018-07-04T20:34:51.522Z,20.30
2018-07-04T20:37:31.182Z,20.20
2018-07-04T20:40:11.027Z,20.00
2018-07-04T20:42:50.754Z,19.70
2018-07-04T20:45:30.433Z,19.50
2018-07-04T20:48:10.140Z,19.40
2018-07-04T20:50:49.856Z,19.40
2018-07-04T20:53:29.608Z,19.50
2018-07-04T20:56:09.304Z,19.40
2018-07-04T20:58:48.996Z,19.30
2018-07-04T21:01:28.739Z,19.30
2018-07-04T21:04:08.677Z,19.30
2018-07-04T21:06:48.495Z,19.40
2018-07-04T21:09:28.421Z,19.40
2018-07-04T21:12:08.200Z,19.30
2018-07-04T21:14:47.969Z,19.20
2018-07-04T21:17:27.545Z,19.20
2018-07-04T21:20:07.403Z,19.10
2018-07-04T21:22:47.619Z,19.20
2018-07-04T21:25:27.514Z,19.10
2018-07-04T21:28:07.170Z,19.20
2018-07-04T21:30:46.988Z,19.10
2018-07-04T21:33:26.546Z,19.10
2018-07-04T21:36:06.255Z,19.10
2018-07-04T21:38:46.036Z,19.20
2018-07-04T21:41:25.659Z,19.20
2018-07-04T21:44:05.573Z,19.10
2018-07-04T21:46:45.444Z,19.00
2018-07-04T21:49:25.110Z,19.10
2018-07-04T21:52:04.770Z,19.10
2018-07-04T21:54:44.472Z,19.00
2018-07-04T21:57:24.159Z,18.60
2018-07-04T22:00:04.093Z,18.40
2018-07-04T22:02:43.831Z,18.30
2018-07-04T22:05:23.439Z,18.10
2018-07-04T22:08:03.384Z,18.00
2018-07-04T22:10:43.208Z,18.10
2018-07-04T22:13:22.931Z,18.00
2018-07-04T22:16:02.394Z,18.00
2018-07-04T22:18:42.052Z,17.90
2018-07-04T22:21:21.834Z,17.90
2018-07-04T22:24:01.495Z,17.90
2018-07-04T22:26:41.402Z,17.90
2018-07-04T22:29:21.220Z,17.90
2018-07-04T22:32:01.004Z,17.90
2018-07-04T22:34:40.533Z,17.90
2018-07-04T22:37:20.335Z,18.00
2018-07-04T22:40:00.220Z,17.90
2018-07-04T22:42:39.945Z,17.90
2018-07-04T22:45:19.761Z,17.90
2018-07-04T22:47:59.432Z,17.80
2018-07-04T22:50:39.139Z,17.90
2018-07-04T22:53:18.788Z,17.80
2018-07-04T22:55:58.797Z,17.80
2018-07-04T22:58:38.860Z,17.70
2018-07-04T23:01:18.516Z,17.70
2018-07-04T23:03:58.117Z,17.70
2018-07-04T23:06:37.959Z,17.60
2018-07-04T23:09:17.893Z,17.60
2018-07-04T23:11:57.629Z,17.60
2018-07-04T23:14:37.709Z,17.50
2018-07-04T23:17:17.564Z,17.60
2018-07-04T23:19:57.298Z,17.80
2018-07-04T23:22:36.868Z,18.00
2018-07-04T23:25:16.597Z,18.10
2018-07-04T23:27:56.385Z,18.00
2018-07-04T23:30:35.977Z,17.70
2018-07-04T23:33:15.714Z,17.70
2018-07-04T23:35:55.655Z,17.50
2018-07-04T23:38:35.359Z,17.40
2018-07-04T23:41:15.260Z,17.40
2018-07-04T23:43:55.019Z,17.30
2018-07-04T23:49:08.652Z,17.30
2018-07-04T23:51:48.295Z,17.30
2018-07-04T23:54:27.960Z,17.20
2018-07-04T23:57:07.828Z,17.20
2018-07-04T23:59:47.883Z,17.20
